Time;durP1;ratioP1;P1;durP2;ratioP2;P2;SDS_P1;SDS_P2;PMS_P1;PMS_P2;Temp;Humidity;BMP_temperature;BMP_pressure;BME280_temperature;BME280_humidity;BME280_pressure;Samples;Min_cycle;Max_cycle;Signal;HPM_P1;HPM_P2
2021/10/21 00:01:39;;;;;;;18.08;3.63;;;;;;;;;;5082923;28;20086;-66
2021/10/21 00:04:05;;;;;;;17.20;3.73;;;;;;;;;;5078866;28;20085;-66
2021/10/21 00:06:31;;;;;;;20.10;4.22;;;;;;;;;;5074633;28;20155;-66
2021/10/21 00:08:58;;;;;;;23.98;3.63;;;;;;;;;;5078395;28;20066;-66
2021/10/21 00:11:24;;;;;;;23.52;3.95;;;;;;;;;;5076061;28;20132;-66
2021/10/21 00:13:50;;;;;;;23.85;4.30;;;;;;;;;;5072680;28;20052;-66
2021/10/21 00:16:16;;;;;;;21.08;3.50;;;;;;;;;;5083509;28;20070;-66
2021/10/21 00:18:42;;;;;;;22.98;3.60;;;;;;;;;;5079540;28;20115;-66
2021/10/21 00:21:09;;;;;;;15.45;3.58;;;;;;;;;;5075620;28;20040;-66
2021/10/21 00:23:35;;;;;;;17.42;3.25;;;;;;;;;;5082007;28;20100;-67
2021/10/21 00:26:06;;;;;;;21.92;3.45;;;;;;;;;;5074781;28;20049;-66
2021/10/21 00:28:33;;;;;;;27.50;4.38;;;;;;;;;;5079027;28;20116;-67
2021/10/21 00:30:59;;;;;;;12.95;3.30;;;;;;;;;;5080652;28;20091;-66
2021/10/21 00:33:25;;;;;;;24.92;5.05;;;;;;;;;;5063618;28;20061;-66
2021/10/21 00:35:51;;;;;;;16.75;3.85;;;;;;;;;;5072017;28;20053;-66
2021/10/21 00:38:18;;;;;;;15.40;4.15;;;;;;;;;;5069037;28;20047;-66
2021/10/21 00:40:44;;;;;;;21.65;4.10;;;;;;;;;;5067125;28;20045;-65
2021/10/21 00:43:10;;;;;;;16.27;3.58;;;;;;;;;;5066943;28;20136;-65
2021/10/21 00:45:36;;;;;;;21.10;4.30;;;;;;;;;;5070234;28;20062;-65
2021/10/21 00:48:03;;;;;;;19.75;4.53;;;;;;;;;;5066080;28;20060;-65
2021/10/21 00:50:29;;;;;;;25.30;5.18;;;;;;;;;;5071042;28;20051;-64
2021/10/21 00:52:56;;;;;;;22.52;4.47;;;;;;;;;;5073390;28;20512;-64
2021/10/21 00:55:22;;;;;;;17.38;4.22;;;;;;;;;;5066326;28;20037;-65
2021/10/21 00:57:49;;;;;;;27.02;5.97;;;;;;;;;;5066331;28;20049;-65
2021/10/21 01:00:15;;;;;;;23.73;6.50;;;;;;;;;;5071160;28;20041;-65
2021/10/21 01:02:41;;;;;;;28.30;5.45;;;;;;;;;;5069582;28;20041;-66
2021/10/21 01:05:08;;;;;;;17.67;5.57;;;;;;;;;;5069507;28;20102;-66
2021/10/21 01:07:34;;;;;;;28.33;6.47;;;;;;;;;;5069824;28;20444;-66
2021/10/21 01:10:01;;;;;;;28.42;7.03;;;;;;;;;;5073057;28;20049;-66
2021/10/21 01:12:27;;;;;;;26.65;6.20;;;;;;;;;;5075520;28;20045;-66
2021/10/21 01:14:53;;;;;;;30.90;6.68;;;;;;;;;;5066731;28;20094;-67
2021/10/21 01:17:19;;;;;;;34.95;7.72;;;;;;;;;;5066640;28;20093;-67
2021/10/21 01:19:45;;;;;;;30.80;6.20;;;;;;;;;;5082648;28;20130;-67
2021/10/21 01:22:12;;;;;;;27.30;7.13;;;;;;;;;;5076964;28;20416;-66
2021/10/21 01:24:38;;;;;;;31.98;6.30;;;;;;;;;;5065930;28;20056;-66
2021/10/21 01:27:04;;;;;;;39.72;8.05;;;;;;;;;;5066033;28;20093;-66
2021/10/21 01:29:31;;;;;;;42.47;9.38;;;;;;;;;;5069811;28;20067;-66
2021/10/21 01:31:57;;;;;;;41.50;8.82;;;;;;;;;;5066211;28;20069;-66
2021/10/21 01:34:24;;;;;;;36.38;8.35;;;;;;;;;;5074741;28;20048;-66
2021/10/21 01:36:51;;;;;;;31.52;8.07;;;;;;;;;;5066727;28;20040;-65
2021/10/21 01:39:17;;;;;;;27.42;9.02;;;;;;;;;;5065827;28;20045;-65
2021/10/21 01:41:43;;;;;;;42.42;9.18;;;;;;;;;;5067364;28;20143;-65
2021/10/21 01:44:09;;;;;;;43.95;10.90;;;;;;;;;;5073952;28;20044;-65
2021/10/21 01:46:35;;;;;;;39.97;12.40;;;;;;;;;;5069164;28;20112;-65
2021/10/21 01:49:01;;;;;;;32.00;10.93;;;;;;;;;;5071923;28;20458;-65
2021/10/21 01:51:28;;;;;;;29.85;10.77;;;;;;;;;;5070632;28;20045;-66
2021/10/21 01:53:54;;;;;;;34.35;12.70;;;;;;;;;;5079606;28;20056;-65
2021/10/21 01:56:20;;;;;;;42.20;12.32;;;;;;;;;;5071879;28;20044;-65
2021/10/21 01:58:46;;;;;;;28.30;10.38;;;;;;;;;;5067491;28;20045;-64
2021/10/21 02:01:12;;;;;;;46.05;12.98;;;;;;;;;;5082731;28;20040;-65
2021/10/21 02:03:38;;;;;;;36.45;14.45;;;;;;;;;;5069094;28;20045;-65
2021/10/21 02:06:04;;;;;;;43.83;14.40;;;;;;;;;;5065491;28;20127;-65
2021/10/21 02:08:30;;;;;;;30.45;11.57;;;;;;;;;;5065292;28;20041;-65
2021/10/21 02:10:56;;;;;;;39.90;12.32;;;;;;;;;;5066690;28;20503;-65
2021/10/21 02:13:22;;;;;;;27.10;11.00;;;;;;;;;;5067728;28;20037;-64
2021/10/21 02:15:49;;;;;;;37.38;11.90;;;;;;;;;;5078476;28;20047;-65
2021/10/21 02:18:15;;;;;;;31.75;8.15;;;;;;;;;;5067991;28;20037;-65
2021/10/21 02:20:41;;;;;;;19.27;8.80;;;;;;;;;;5065315;28;20041;-65
2021/10/21 02:23:07;;;;;;;16.83;7.45;;;;;;;;;;5073328;28;20400;-64
2021/10/21 02:25:33;;;;;;;16.00;5.82;;;;;;;;;;5064799;28;20127;-64
2021/10/21 02:27:59;;;;;;;16.27;5.13;;;;;;;;;;5074609;28;20055;-63
2021/10/21 02:30:25;;;;;;;19.17;5.03;;;;;;;;;;5064492;28;20052;-62
2021/10/21 02:32:51;;;;;;;16.35;5.10;;;;;;;;;;5064734;28;20083;-60
2021/10/21 02:35:17;;;;;;;15.32;4.72;;;;;;;;;;5068454;28;20055;-62
2021/10/21 02:37:43;;;;;;;18.88;4.60;;;;;;;;;;5070718;28;20041;-62
2021/10/21 02:40:12;;;;;;;20.50;5.28;;;;;;;;;;5064870;28;20078;-61
2021/10/21 02:42:39;;;;;;;25.98;5.45;;;;;;;;;;5071017;28;20123;-60
2021/10/21 02:45:05;;;;;;;12.70;3.77;;;;;;;;;;5075802;28;20048;-61
2021/10/21 02:47:31;;;;;;;24.65;7.07;;;;;;;;;;5071653;28;20041;-61
2021/10/21 02:49:58;;;;;;;22.10;5.28;;;;;;;;;;5064793;28;20128;-61
2021/10/21 02:52:24;;;;;;;47.20;7.18;;;;;;;;;;5067307;28;20052;-61
2021/10/21 02:54:50;;;;;;;4.18;1.10;;;;;;;;;;5069719;28;20057;-61
2021/10/21 02:57:16;;;;;;;21.90;2.38;;;;;;;;;;5070882;28;20043;-60
2021/10/21 02:59:42;;;;;;;5.47;1.40;;;;;;;;;;5067470;28;20048;-61
2021/10/21 03:02:08;;;;;;;7.97;1.38;;;;;;;;;;5072951;28;20080;-60
2021/10/21 03:04:34;;;;;;;7.60;1.63;;;;;;;;;;5064648;28;20068;-60
2021/10/21 03:07:00;;;;;;;1.35;0.70;;;;;;;;;;5071545;28;20063;-61
2021/10/21 03:09:27;;;;;;;3.15;1.00;;;;;;;;;;5064449;28;20044;-61
2021/10/21 03:11:53;;;;;;;6.03;1.70;;;;;;;;;;5064325;28;20501;-61
2021/10/21 03:14:19;;;;;;;5.43;1.30;;;;;;;;;;5069743;28;20047;-61
2021/10/21 03:16:45;;;;;;;3.80;1.30;;;;;;;;;;5076504;28;20037;-61
2021/10/21 03:19:11;;;;;;;5.72;1.73;;;;;;;;;;5064793;28;20065;-62
2021/10/21 03:21:37;;;;;;;4.20;1.58;;;;;;;;;;5064276;28;20072;-62
2021/10/21 03:24:04;;;;;;;1.92;1.10;;;;;;;;;;5064493;28;20068;-62
2021/10/21 03:26:30;;;;;;;8.73;1.92;;;;;;;;;;5064706;28;20044;-62
2021/10/21 03:28:56;;;;;;;9.38;1.55;;;;;;;;;;5075685;28;20132;-62
2021/10/21 03:31:23;;;;;;;6.78;1.10;;;;;;;;;;5064031;28;20064;-62
2021/10/21 03:33:50;;;;;;;3.55;1.48;;;;;;;;;;5064145;28;20041;-62
2021/10/21 03:36:16;;;;;;;9.75;2.40;;;;;;;;;;5063909;28;20052;-62
2021/10/21 03:38:42;;;;;;;6.50;1.20;;;;;;;;;;5078237;28;20051;-62
2021/10/21 03:41:08;;;;;;;5.53;1.17;;;;;;;;;;5063639;28;20045;-61
2021/10/21 03:43:34;;;;;;;8.32;1.35;;;;;;;;;;5063924;28;20051;-61
2021/10/21 03:46:00;;;;;;;6.35;1.67;;;;;;;;;;5070953;28;20036;-61
2021/10/21 03:48:26;;;;;;;4.43;1.00;;;;;;;;;;5068275;28;20140;-61
2021/10/21 03:50:52;;;;;;;8.00;1.50;;;;;;;;;;5073593;28;20044;-62
2021/10/21 03:53:19;;;;;;;6.78;2.10;;;;;;;;;;5063679;28;20074;-61
2021/10/21 03:55:45;;;;;;;7.60;1.40;;;;;;;;;;5063433;28;20063;-61
2021/10/21 03:58:11;;;;;;;8.25;1.40;;;;;;;;;;5064400;28;20072;-61
2021/10/21 04:00:37;;;;;;;8.65;2.10;;;;;;;;;;5064012;28;20140;-61
2021/10/21 04:03:03;;;;;;;5.72;1.48;;;;;;;;;;5071133;28;20037;-61
2021/10/21 04:05:29;;;;;;;7.20;1.35;;;;;;;;;;5064269;28;20055;-61
2021/10/21 04:07:55;;;;;;;5.32;0.93;;;;;;;;;;5063560;28;20048;-61
2021/10/21 04:10:21;;;;;;;13.10;1.58;;;;;;;;;;5065580;28;20051;-61
2021/10/21 04:12:47;;;;;;;4.40;1.45;;;;;;;;;;5078195;28;20044;-61
2021/10/21 04:15:14;;;;;;;3.60;1.00;;;;;;;;;;5067459;28;20053;-62
2021/10/21 04:17:40;;;;;;;7.18;1.55;;;;;;;;;;5067680;28;20045;-63
2021/10/21 04:20:06;;;;;;;2.65;0.80;;;;;;;;;;5081203;28;20047;-62
2021/10/21 04:22:33;;;;;;;15.15;2.45;;;;;;;;;;5078118;28;20041;-62
2021/10/21 04:24:59;;;;;;;7.88;1.15;;;;;;;;;;5066856;28;20511;-62
2021/10/21 04:27:25;;;;;;;7.60;1.48;;;;;;;;;;5075704;28;20464;-61
2021/10/21 04:29:51;;;;;;;7.80;1.50;;;9.90;99.90;;;;;;5066947;28;20053;-61
2021/10/21 04:32:17;;;;;;;11.70;1.67;;;10.10;99.90;;;;;;5071568;28;20056;-63
2021/10/21 04:34:42;;;;;;;4.63;1.05;;;9.90;99.90;;;;;;5066861;28;20079;-62
2021/10/21 04:37:08;;;;;;;5.63;0.98;;;9.90;99.90;;;;;;5067350;28;20558;-62
2021/10/21 04:39:34;;;;;;;4.75;1.25;;;9.90;99.90;;;;;;5080286;28;20752;-62
2021/10/21 04:41:59;;;;;;;5.20;2.05;;;10.20;99.90;;;;;;5073808;28;20063;-62
2021/10/21 04:44:25;;;;;;;9.50;2.47;;;10.40;99.90;;;;;;5067395;28;20040;-62
2021/10/21 04:46:51;;;;;;;3.92;2.45;;;10.30;99.90;;;;;;5067350;28;20047;-62
2021/10/21 04:49:16;;;;;;;6.13;1.83;;;10.50;99.90;;;;;;5072348;28;20059;-62
2021/10/21 04:51:42;;;;;;;4.03;2.33;;;10.70;99.90;;;;;;5082929;28;20044;-62
2021/10/21 04:54:08;;;;;;;9.43;2.00;;;10.80;99.90;;;;;;5069033;28;20106;-62
2021/10/21 04:56:34;;;;;;;2.58;1.45;;;10.60;99.90;;;;;;5066514;28;20049;-62
2021/10/21 04:59:00;;;;;;;5.03;1.42;;;10.70;99.90;;;;;;5066744;28;20049;-63
2021/10/21 05:01:25;;;;;;;3.95;1.27;;;10.40;99.90;;;;;;5075060;28;20035;-62
2021/10/21 05:03:51;;;;;;;4.57;1.08;;;10.40;99.90;;;;;;5073302;28;20048;-62
2021/10/21 05:06:17;;;;;;;6.85;1.58;;;10.20;99.90;;;;;;5066635;28;20040;-62
2021/10/21 05:08:42;;;;;;;6.00;1.45;;;10.30;99.90;;;;;;5065721;28;20092;-63
2021/10/21 05:11:09;;;;;;;10.15;1.60;;;;;;;;;;5066313;28;20040;-62
2021/10/21 05:13:35;;;;;;;7.03;1.40;;;;;;;;;;5066803;28;20037;-62
2021/10/21 05:16:01;;;;;;;13.07;2.22;;;;;;;;;;5066523;28;20045;-62
2021/10/21 05:18:27;;;;;;;3.13;0.65;;;;;;;;;;5070201;28;20041;-62
2021/10/21 05:20:53;;;;;;;1.50;0.52;;;9.50;99.90;;;;;;5072267;28;20037;-63
2021/10/21 05:23:19;;;;;;;11.10;1.38;;;9.20;99.90;;;;;;5066154;28;20040;-62
2021/10/21 05:25:48;;;;;;;17.10;1.75;;;8.80;99.90;;;;;;5066108;28;20052;-62
2021/10/21 05:28:14;;;;;;;14.20;2.58;;;9.10;99.90;;;;;;5049105;28;20055;-62
2021/10/21 05:30:40;;;;;;;13.75;2.22;;;9.30;99.90;;;;;;5073739;28;20516;-62
2021/10/21 05:33:06;;;;;;;19.80;2.03;;;9.10;99.90;;;;;;5066463;28;20100;-61
2021/10/21 05:35:31;;;;;;;17.88;1.85;;;9.20;99.90;;;;;;5066203;28;20063;-61
2021/10/21 05:37:58;;;;;;;16.77;1.50;;;9.00;99.90;;;;;;5064476;28;20075;-61
2021/10/21 05:40:24;;;;;;;10.82;2.25;;;9.30;99.90;;;;;;5072754;28;20037;-62
2021/10/21 05:42:49;;;;;;;18.00;1.60;;;9.20;99.90;;;;;;5066252;28;20080;-61
2021/10/21 05:45:16;;;;;;;13.48;1.65;;;9.00;99.90;;;;;;5066099;28;20048;-61
2021/10/21 05:47:42;;;;;;;27.30;2.70;;;9.30;99.90;;;;;;5066226;28;20052;-61
2021/10/21 05:50:09;;;;;;;15.25;1.65;;;9.50;99.90;;;;;;5065935;28;20045;-61
2021/10/21 05:52:38;;;;;;;15.30;2.03;;;9.20;99.90;;;;;;5069174;28;20053;-62
2021/10/21 05:55:04;;;;;;;14.57;1.40;;;9.10;99.90;;;;;;5065229;28;20052;-62
2021/10/21 05:57:30;;;;;;;14.05;1.60;;;;;;;;;;5068320;28;20037;-62
2021/10/21 05:59:57;;;;;;;20.25;3.03;;;;;;;;;;5074385;28;20056;-62
2021/10/21 06:02:23;;;;;;;15.93;2.00;;;;;;;;;;5065594;28;20085;-62
2021/10/21 06:04:49;;;;;;;21.95;3.67;;;;;;;;;;5065528;28;20045;-63
2021/10/21 06:07:15;;;;;;;9.40;1.70;;;;;;;;;;5069288;28;20036;-63
2021/10/21 06:09:42;;;;;;;19.45;2.22;;;;;;;;;;5074671;28;20076;-62
2021/10/21 06:12:08;;;;;;;12.88;1.42;;;;;;;;;;5084097;28;20639;-62
2021/10/21 06:14:35;;;;;;;14.60;1.70;;;;;;;;;;5086080;28;20048;-62
2021/10/21 06:17:01;;;;;;;11.02;2.13;;;;;;;;;;5083961;28;20405;-62
2021/10/21 06:19:28;;;;;;;15.43;2.08;;;;;;;;;;5082303;28;20187;-61
2021/10/21 06:22:05;;;;;;;16.45;1.60;;;;;;;;;;5081036;28;20067;-62
2021/10/21 06:24:31;;;;;;;14.27;2.07;;;;;;;;;;5082538;28;20056;-61
2021/10/21 06:26:57;;;;;;;15.32;1.77;;;;;;;;;;5073871;28;20052;-62
2021/10/21 06:29:23;;;;;;;19.70;2.10;;;;;;;;;;5082620;28;20061;-62
2021/10/21 06:31:50;;;;;;;13.73;2.40;;;;;;;;;;5080580;28;20044;-62
2021/10/21 06:34:17;;;;;;;13.68;2.10;;;;;;;;;;5078198;28;20048;-62
2021/10/21 06:36:43;;;;;;;17.10;2.42;;;;;;;;;;5074846;28;20051;-62
2021/10/21 06:39:09;;;;;;;11.95;1.92;;;;;;;;;;5079149;28;20136;-61
2021/10/21 06:41:35;;;;;;;19.52;2.25;;;;;;;;;;5083560;28;20512;-62
2021/10/21 06:44:01;;;;;;;18.88;1.88;;;;;;;;;;5066322;28;20048;-62
2021/10/21 06:46:28;;;;;;;16.90;1.90;;;;;;;;;;5067967;28;20068;-62
2021/10/21 06:48:55;;;;;;;24.38;3.17;;;;;;;;;;5070413;28;20064;-62
2021/10/21 06:51:21;;;;;;;14.53;2.70;;;;;;;;;;5064451;28;20080;-63
2021/10/21 06:53:47;;;;;;;13.60;2.30;;;;;;;;;;5070924;28;20705;-63
2021/10/21 06:56:14;;;;;;;25.33;2.85;;;;;;;;;;5072929;28;20154;-63
2021/10/21 06:58:40;;;;;;;12.45;2.08;;;;;;;;;;5063962;28;20052;-62
2021/10/21 07:01:06;;;;;;;14.88;2.47;;;;;;;;;;5065459;28;20051;-62
2021/10/21 07:03:32;;;;;;;9.32;2.60;;;;;;;;;;5072947;28;20080;-63
2021/10/21 07:05:58;;;;;;;17.08;2.60;;;;;;;;;;5065564;28;20068;-63
2021/10/21 07:08:26;;;;;;;17.55;2.90;;;;;;;;;;5067901;28;20044;-63
2021/10/21 07:10:53;;;;;;;24.13;2.40;;;;;;;;;;5064938;28;20045;-64
2021/10/21 07:13:19;;;;;;;11.50;2.17;;;;;;;;;;5065209;28;20032;-63
2021/10/21 07:15:45;;;;;;;15.80;2.30;;;;;;;;;;5072143;28;20132;-63
2021/10/21 07:18:11;;;;;;;10.52;2.40;;;;;;;;;;5079456;28;20032;-64
2021/10/21 07:20:37;;;;;;;10.85;1.63;;;;;;;;;;5080180;28;20046;-63
2021/10/21 07:23:03;;;;;;;16.77;1.90;;;;;;;;;;5078897;28;20078;-63
2021/10/21 07:25:30;;;;;;;15.32;2.15;;;;;;;;;;5084659;28;20065;-70
2021/10/21 07:27:57;;;;;;;17.40;2.30;;;;;;;;;;5079775;28;20053;-71
2021/10/21 07:30:23;;;;;;;18.50;2.33;;;;;;;;;;5070246;28;20052;-68
2021/10/21 07:32:49;;;;;;;11.52;2.05;;;;;;;;;;5069000;28;20295;-64
2021/10/21 07:35:15;;;;;;;15.43;2.13;;;;;;;;;;5069074;28;20072;-66
2021/10/21 07:37:41;;;;;;;10.50;1.83;;;;;;;;;;5074976;28;20159;-66
2021/10/21 07:40:08;;;;;;;10.32;2.15;;;;;;;;;;5075016;28;20045;-69
2021/10/21 07:42:36;;;;;;;14.07;2.05;;;;;;;;;;5072885;28;20067;-64
2021/10/21 07:45:02;;;;;;;13.48;1.38;;;;;;;;;;5082640;28;20047;-65
2021/10/21 07:47:28;;;;;;;13.35;2.25;;;;;;;;;;5079488;28;20037;-68
2021/10/21 07:49:54;;;;;;;11.05;1.77;;;;;;;;;;5084677;28;20044;-68
2021/10/21 07:52:25;;;;;;;12.85;1.90;;;;;;;;;;5084774;28;20040;-67
2021/10/21 07:54:51;;;;;;;13.18;1.75;;;;;;;;;;5080035;28;20041;-67
2021/10/21 07:57:19;;;;;;;25.13;2.75;;;;;;;;;;5081469;28;20041;-67
2021/10/21 07:59:45;;;;;;;10.93;2.22;;;;;;;;;;5081625;28;20053;-67
2021/10/21 08:02:13;;;;;;;13.57;1.55;;;;;;;;;;5080881;28;20048;-68
2021/10/21 08:04:39;;;;;;;9.32;1.63;;;;;;;;;;5081493;28;20041;-67
2021/10/21 08:07:05;;;;;;;7.40;1.35;;;;;;;;;;5081475;28;20036;-67
2021/10/21 08:09:32;;;;;;;8.88;1.92;;;;;;;;;;5076957;28;20099;-68
2021/10/21 08:12:02;;;;;;;9.32;1.38;;;;;;;;;;5087133;28;20041;-67
2021/10/21 08:14:28;;;;;;;17.98;2.45;;;;;;;;;;5084675;28;20070;-68
2021/10/21 08:16:55;;;;;;;11.93;1.90;;;;;;;;;;5087720;28;20127;-67
2021/10/21 08:19:21;;;;;;;14.90;2.28;;;;;;;;;;5086248;28;20040;-67
2021/10/21 08:21:47;;;;;;;8.90;1.52;;;;;;;;;;5094209;28;20119;-68
2021/10/21 08:24:14;;;;;;;14.88;2.60;;;;;;;;;;5083027;28;20047;-68
2021/10/21 08:26:41;;;;;;;12.68;2.20;;;;;;;;;;5076678;28;20079;-68
2021/10/21 08:29:08;;;;;;;15.40;1.30;;;;;;;;;;5088938;28;20052;-69
2021/10/21 08:31:34;;;;;;;11.85;2.08;;;;;;;;;;5078843;28;20084;-68
2021/10/21 08:34:00;;;;;;;14.45;1.88;;;;;;;;;;5071752;28;20070;-72
2021/10/21 08:36:26;;;;;;;12.23;1.92;;;;;;;;;;5078160;28;20032;-68
2021/10/21 08:38:53;;;;;;;16.90;2.85;;;;;;;;;;5094504;28;20040;-68
2021/10/21 08:41:21;;;;;;;16.05;2.05;;;;;;;;;;5077399;28;20128;-67
2021/10/21 08:43:47;;;;;;;12.13;2.17;;;;;;;;;;5078316;28;20101;-66
2021/10/21 08:46:21;;;;;;;10.30;1.83;;;;;;;;;;5075567;28;20047;-67
2021/10/21 08:48:48;;;;;;;10.82;1.70;;;;;;;;;;5082170;28;20044;-68
2021/10/21 08:51:15;;;;;;;12.90;1.33;;;;;;;;;;5077702;28;20048;-70
2021/10/21 08:53:41;;;;;;;11.43;1.55;;;;;;;;;;5077585;28;20108;-70
2021/10/21 08:56:07;;;;;;;15.13;3.05;;;;;;;;;;5075405;28;20117;-69
2021/10/21 08:58:34;;;;;;;13.65;2.35;;;;;;;;;;5082532;28;20036;-68
2021/10/21 09:01:07;;;;;;;12.40;1.83;;;;;;;;;;5084523;28;20396;-69
2021/10/21 09:04:13;;;;;;;6.95;1.60;;;;;;;;;;5076040;28;20044;-72
2021/10/21 09:09:18;;;;;;;17.50;1.98;;;;;;;;;;5079616;28;20044;-69
2021/10/21 09:11:44;;;;;;;9.85;1.67;;;;;;;;;;5089827;28;20053;-71
2021/10/21 09:14:14;;;;;;;16.15;1.80;;;;;;;;;;5081772;28;20041;-77
2021/10/21 09:16:58;;;;;;;7.35;1.20;;;;;;;;;;5081212;28;20037;-71
2021/10/21 09:19:27;;;;;;;11.07;1.42;;;;;;;;;;5075792;28;20041;-70
2021/10/21 09:21:53;;;;;;;9.13;1.70;;;;;;;;;;5092332;28;20155;-64
2021/10/21 09:24:23;;;;;;;19.58;2.25;;;;;;;;;;5082661;28;20044;-65
2021/10/21 09:27:15;;;;;;;11.05;2.00;;;;;;;;;;5082900;28;20032;-66
2021/10/21 09:29:46;;;;;;;8.18;1.33;;;;;;;;;;5081088;28;20047;-64
2021/10/21 09:32:12;;;;;;;4.88;1.10;;;;;;;;;;5085822;28;20045;-65
2021/10/21 09:35:02;;;;;;;12.68;1.88;;;;;;;;;;5072412;28;20120;-62
2021/10/21 09:37:46;;;;;;;16.20;2.08;;;;;;;;;;5071832;28;20109;-64
2021/10/21 09:40:21;;;;;;;11.13;2.15;;;;;;;;;;5072738;28;20044;-69
2021/10/21 09:43:01;;;;;;;14.43;2.35;;;;;;;;;;5076126;28;20044;-64
2021/10/21 09:45:28;;;;;;;12.45;1.30;;;;;;;;;;5080584;28;20070;-67
2021/10/21 09:48:05;;;;;;;7.40;1.40;;;;;;;;;;5079278;28;20056;-68
2021/10/21 09:50:34;;;;;;;13.27;2.05;;;;;;;;;;5076190;28;20075;-63
2021/10/21 09:53:06;;;;;;;16.23;2.20;;;;;;;;;;5084304;28;20068;-74
2021/10/21 09:55:33;;;;;;;26.45;2.63;;;;;;;;;;5080959;28;20064;-76
2021/10/21 09:58:03;;;;;;;9.88;1.52;;;;;;;;;;5094911;28;20048;-75
2021/10/21 10:00:30;;;;;;;13.30;1.95;;;;;;;;;;5077347;28;20061;-79
2021/10/21 10:03:15;;;;;;;15.93;2.08;;;;;;;;;;5080813;28;20066;-78
2021/10/21 10:05:49;;;;;;;16.50;2.33;;;;;;;;;;5078958;28;20051;-78
2021/10/21 10:08:16;;;;;;;25.40;1.52;;;;;;;;;;5099806;28;20047;-72
2021/10/21 10:10:44;;;;;;;8.73;2.17;;;;;;;;;;5076630;28;20044;-65
2021/10/21 10:13:10;;;;;;;15.15;1.90;;;;;;;;;;5077335;28;20071;-72
2021/10/21 10:15:43;;;;;;;10.13;1.55;;;;;;;;;;5077389;28;20048;-75
2021/10/21 10:18:13;;;;;;;10.60;2.25;;;;;;;;;;5080577;28;20044;-77
2021/10/21 10:20:40;;;;;;;5.55;1.17;;;;;;;;;;5074918;28;20037;-63
2021/10/21 10:23:10;;;;;;;7.90;1.60;;;;;;;;;;5084240;28;20036;-64
2021/10/21 10:25:44;;;;;;;7.28;1.33;;;;;;;;;;5084180;28;20051;-63
2021/10/21 10:28:10;;;;;;;6.38;1.52;;;;;;;;;;5089625;28;20109;-62
2021/10/21 10:30:50;;;;;;;10.05;1.98;;;;;;;;;;5073143;28;20061;-77
2021/10/21 10:33:37;;;;;;;12.10;2.30;;;;;;;;;;5092481;28;20073;-67
2021/10/21 10:36:21;;;;;;;10.07;2.30;;;;;;;;;;5076864;28;20048;-67
2021/10/21 10:38:48;;;;;;;12.75;1.88;;;;;;;;;;5075609;28;20108;-67
2021/10/21 10:41:34;;;;;;;7.03;1.40;;;;;;;;;;5081044;28;20037;-65
2021/10/21 10:44:00;;;;;;;13.57;1.92;;;;;;;;;;5090731;28;20075;-65
2021/10/21 10:46:45;;;;;;;13.63;1.70;;;;;;;;;;5072707;28;20048;-65
2021/10/21 10:49:13;;;;;;;16.60;3.95;;;;;;;;;;5091666;28;20076;-61
2021/10/21 10:51:59;;;;;;;12.40;1.65;;;;;;;;;;5074102;28;20055;-63
2021/10/21 10:54:46;;;;;;;8.38;1.25;;;;;;;;;;5075243;28;20044;-63
2021/10/21 10:57:13;;;;;;;17.23;1.65;;;;;;;;;;5080040;28;20045;-62
2021/10/21 10:59:41;;;;;;;15.75;2.65;;;;;;;;;;5084223;28;20090;-63
2021/10/21 11:02:26;;;;;;;8.60;1.45;;;;;;;;;;5083701;28;20041;-63
2021/10/21 11:04:55;;;;;;;8.75;1.75;;;;;;;;;;5077168;28;20464;-62
2021/10/21 11:07:25;;;;;;;8.80;2.35;;;;;;;;;;5073912;28;20047;-64
2021/10/21 11:09:52;;;;;;;10.57;1.73;;;;;;;;;;5068729;28;21305;-65
2021/10/21 11:12:19;;;;;;;10.00;1.52;;;;;;;;;;5075664;28;20051;-63
2021/10/21 11:14:48;;;;;;;8.50;1.73;;;;;;;;;;5068551;28;20041;-65
2021/10/21 11:17:34;;;;;;;6.05;1.20;;;;;;;;;;5074034;28;20048;-64
2021/10/21 11:20:00;;;;;;;9.05;1.60;;;;;;;;;;5072305;28;20039;-65
2021/10/21 11:22:26;;;;;;;11.68;2.03;;;;;;;;;;5085527;28;20088;-69
2021/10/21 11:24:53;;;;;;;9.75;1.40;;;;;;;;;;5076132;28;20064;-68
2021/10/21 11:27:20;;;;;;;11.20;1.33;;;;;;;;;;5064341;28;20074;-71
2021/10/21 11:29:48;;;;;;;13.30;1.30;;;;;;;;;;5075477;28;20059;-72
2021/10/21 11:32:16;;;;;;;5.70;1.25;;;;;;;;;;5068805;28;20059;-70
2021/10/21 11:34:42;;;;;;;11.05;1.50;;;;;;;;;;5075165;28;20037;-70
2021/10/21 11:37:08;;;;;;;10.07;1.75;;;;;;;;;;5068221;28;20053;-71
2021/10/21 11:39:36;;;;;;;7.15;1.58;;;;;;;;;;5068316;28;20222;-67
2021/10/21 11:42:03;;;;;;;9.65;2.30;;;;;;;;;;5071035;28;20041;-68
2021/10/21 11:44:29;;;;;;;8.20;1.40;;;;;;;;;;5069774;28;20052;-67
2021/10/21 11:47:03;;;;;;;9.30;1.48;;;;;;;;;;5079023;28;20040;-67
2021/10/21 11:49:31;;;;;;;8.45;1.35;;;;;;;;;;5077379;28;20098;-66
2021/10/21 11:52:07;;;;;;;8.52;1.42;;;;;;;;;;5077728;28;20045;-64
2021/10/21 11:54:34;;;;;;;6.47;1.33;;;;;;;;;;5073866;28;20040;-64
2021/10/21 11:57:00;;;;;;;7.88;1.25;;;;;;;;;;5079490;28;20044;-64
2021/10/21 11:59:33;;;;;;;7.28;1.25;;;;;;;;;;5078563;28;20339;-64
2021/10/21 12:02:18;;;;;;;10.18;1.73;;;;;;;;;;5074194;28;20036;-66
2021/10/21 12:04:45;;;;;;;8.20;1.45;;;;;;;;;;5088453;28;20057;-62
2021/10/21 12:07:12;;;;;;;4.60;1.35;;;;;;;;;;5074864;28;20044;-64
2021/10/21 12:09:39;;;;;;;1.85;0.73;;;;;;;;;;5079767;28;20066;-62
2021/10/21 12:12:06;;;;;;;7.78;1.35;;;;;;;;;;5080804;28;20077;-64
2021/10/21 12:14:33;;;;;;;9.13;1.65;;;;;;;;;;5073172;28;20116;-67
2021/10/21 12:16:59;;;;;;;6.37;1.30;;;;;;;;;;5073811;28;20090;-66
2021/10/21 12:19:26;;;;;;;4.35;1.13;;;;;;;;;;5086095;28;20074;-63
2021/10/21 12:22:02;;;;;;;9.85;1.73;;;;;;;;;;5070336;28;20062;-62
2021/10/21 12:24:28;;;;;;;7.50;1.15;;;;;;;;;;5084397;28;20045;-64
2021/10/21 12:26:58;;;;;;;9.10;1.13;;;;;;;;;;5081004;28;20052;-63
2021/10/21 12:29:29;;;;;;;10.85;1.33;;;;;;;;;;5075078;28;20048;-60
2021/10/21 12:31:55;;;;;;;6.30;1.58;;;;;;;;;;5080664;28;20053;-62
2021/10/21 12:34:22;;;;;;;8.73;1.20;;;;;;;;;;5089084;28;20032;-61
2021/10/21 12:36:53;;;;;;;7.95;1.10;;;;;;;;;;5083085;28;20045;-68
2021/10/21 12:39:32;;;;;;;7.07;1.83;;;;;;;;;;5082177;28;20049;-68
2021/10/21 12:42:00;;;;;;;6.32;1.15;;;;;;;;;;5086773;28;20082;-68
2021/10/21 12:44:27;;;;;;;15.88;1.60;;;;;;;;;;5082626;28;20065;-69
2021/10/21 12:47:08;;;;;;;9.85;1.33;;;;;;;;;;5085800;28;20047;-71
2021/10/21 12:49:35;;;;;;;8.75;1.83;;;;;;;;;;5082093;28;20044;-71
2021/10/21 12:52:08;;;;;;;8.82;1.65;;;;;;;;;;5078543;28;20048;-70
2021/10/21 12:54:36;;;;;;;7.32;1.52;;;;;;;;;;5077713;28;20124;-67
2021/10/21 12:57:03;;;;;;;10.70;1.50;;;;;;;;;;5080520;28;20079;-68
2021/10/21 12:59:29;;;;;;;10.00;2.10;;;;;;;;;;5081208;28;20045;-68
2021/10/21 13:02:02;;;;;;;12.38;2.33;;;;;;;;;;5080716;28;20389;-68
2021/10/21 13:04:38;;;;;;;11.93;1.98;;;;;;;;;;5083152;28;20060;-72
2021/10/21 13:07:05;;;;;;;10.80;1.70;;;;;;;;;;5077126;28;20045;-64
2021/10/21 13:09:31;;;;;;;17.17;2.40;;;;;;;;;;5080286;28;20113;-63
2021/10/21 13:11:58;;;;;;;14.15;2.42;;;;;;;;;;5077169;28;20047;-73
2021/10/21 13:14:24;;;;;;;14.23;1.95;;;;;;;;;;5078686;28;20055;-74
2021/10/21 13:16:50;;;;;;;11.88;2.28;;;;;;;;;;5079417;28;20051;-76
2021/10/21 13:19:16;;;;;;;13.70;2.35;;;;;;;;;;5076074;28;20068;-70
2021/10/21 13:21:42;;;;;;;11.75;3.22;;;;;;;;;;5079726;28;20047;-81
2021/10/21 13:24:08;;;;;;;11.50;2.20;;;;;;;;;;5075307;28;20201;-71
2021/10/21 13:26:34;;;;;;;17.60;2.30;;;;;;;;;;5075282;28;20048;-72
2021/10/21 13:29:00;;;;;;;16.45;2.65;;;;;;;;;;5076237;28;20479;-71
2021/10/21 13:31:26;;;;;;;14.15;2.53;;;;;;;;;;5075369;28;20052;-67
2021/10/21 13:33:52;;;;;;;14.70;2.70;;;;;;;;;;5080843;28;20097;-65
2021/10/21 13:36:18;;;;;;;17.88;2.90;;;;;;;;;;5083670;28;20041;-70
2021/10/21 13:38:44;;;;;;;16.48;2.90;;;12.60;99.90;;;;;;5080294;28;20051;-69
2021/10/21 13:41:09;;;;;;;12.80;2.35;;;13.10;99.90;;;;;;5073567;28;20076;-68
2021/10/21 13:43:35;;;;;;;13.32;2.95;;;13.20;99.90;;;;;;5076296;28;20045;-67
2021/10/21 13:46:01;;;;;;;13.48;3.28;;;13.30;99.90;;;;;;5076178;28;20580;-63
2021/10/21 13:48:29;;;;;;;11.13;2.85;;;13.20;99.90;;;;;;5081297;28;20416;-63
2021/10/21 13:50:55;;;;;;;18.65;3.25;;;12.80;99.90;;;;;;5080336;28;20048;-74
2021/10/21 13:53:21;;;;;;;20.85;3.15;;;12.10;99.90;;;;;;5080475;28;20036;-65
2021/10/21 13:55:47;;;;;;;17.63;3.72;;;;;;;;;;5078670;28;20054;-65
2021/10/21 13:58:14;;;;;;;17.40;3.17;;;12.10;99.90;;;;;;5081800;28;20075;-68
2021/10/21 14:00:40;;;;;;;12.50;3.03;;;12.60;99.90;;;;;;5088225;28;20100;-67
2021/10/21 14:03:06;;;;;;;18.52;3.83;;;12.90;99.90;;;;;;5074596;28;20064;-69
2021/10/21 14:05:33;;;;;;;16.60;3.50;;;13.10;99.90;;;;;;5089591;28;20043;-68
2021/10/21 14:08:00;;;;;;;15.40;2.67;;;13.10;99.90;;;;;;5071407;28;20044;-63
2021/10/21 14:10:26;;;;;;;19.40;3.33;;;;;;;;;;5071705;28;20043;-62
2021/10/21 14:12:53;;;;;;;17.33;3.60;;;11.60;99.90;;;;;;5071178;28;20147;-63
2021/10/21 14:15:19;;;;;;;9.75;1.92;;;;;;;;;;5082256;28;20051;-62
2021/10/21 14:17:45;;;;;;;7.75;1.90;;;11.50;99.90;;;;;;5076651;28;20070;-63
2021/10/21 14:20:11;;;;;;;7.97;1.65;;;11.80;99.90;;;;;;5076024;28;20036;-64
2021/10/21 14:22:37;;;;;;;9.90;2.83;;;12.20;99.90;;;;;;5081574;28;20044;-65